sensor_id;sensor_type;location;lat;lon;timestamp;P1;durP1;ratioP1;P2;durP2;ratioP2
12459;SDS011;6295;49.452;8.466;2024-03-02T09:14:18;12.30;;;8.57;;
12459;SDS011;6295;49.452;8.466;2024-03-02T09:18:22;9.60;;;7.33;;
12459;SDS011;6295;49.452;8.466;2024-03-02T09:22:24;10.93;;;7.77;;
12459;SDS011;6295;49.452;8.466;2024-03-02T09:26:26;7.93;;;6.60;;
12459;SDS011;6295;49.452;8.466;2024-03-02T09:30:30;9.43;;;7.00;;
12459;SDS011;6295;49.452;8.466;2024-03-02T09:34:32;8.30;;;6.53;;
12459;SDS011;6295;49.452;8.466;2024-03-02T09:38:34;12.47;;;8.60;;
12459;SDS011;6295;49.452;8.466;2024-03-02T09:42:36;11.77;;;9.30;;
12459;SDS011;6295;49.452;8.466;2024-03-02T09:46:40;11.17;;;9.20;;
12459;SDS011;6295;49.452;8.466;2024-03-02T09:50:44;10.57;;;8.63;;
12459;SDS011;6295;49.452;8.466;2024-03-02T09:54:47;11.20;;;9.20;;
12459;SDS011;6295;49.452;8.466;2024-03-02T09:58:49;11.73;;;8.87;;
12459;SDS011;6295;49.452;8.466;2024-03-02T10:02:53;9.03;;;7.53;;
12459;SDS011;6295;49.452;8.466;2024-03-02T10:07:09;16.13;;;11.57;;
12459;SDS011;6295;49.452;8.466;2024-03-02T10:11:14;9.33;;;7.83;;
12459;SDS011;6295;49.452;8.466;2024-03-02T10:15:29;8.47;;;6.57;;
12459;SDS011;6295;49.452;8.466;2024-03-02T10:19:33;7.90;;;6.13;;
12459;SDS011;6295;49.452;8.466;2024-03-02T10:23:36;9.80;;;6.27;;
12459;SDS011;6295;49.452;8.466;2024-03-02T10:27:39;8.07;;;6.13;;
12459;SDS011;6295;49.452;8.466;2024-03-02T10:31:42;6.30;;;5.53;;
12459;SDS011;6295;49.452;8.466;2024-03-02T10:35:47;7.60;;;6.00;;
12459;SDS011;6295;49.452;8.466;2024-03-02T10:39:51;5.87;;;4.93;;
12459;SDS011;6295;49.452;8.466;2024-03-02T10:43:54;5.60;;;4.77;;
12459;SDS011;6295;49.452;8.466;2024-03-02T10:47:59;12.40;;;5.03;;
12459;SDS011;6295;49.452;8.466;2024-03-02T10:52:04;5.50;;;4.73;;
12459;SDS011;6295;49.452;8.466;2024-03-02T10:56:09;4.90;;;4.30;;
12459;SDS011;6295;49.452;8.466;2024-03-02T11:00:18;4.63;;;4.10;;
12459;SDS011;6295;49.452;8.466;2024-03-02T11:04:26;4.93;;;3.70;;
12459;SDS011;6295;49.452;8.466;2024-03-02T11:08:31;3.97;;;3.57;;
12459;SDS011;6295;49.452;8.466;2024-03-02T11:12:36;5.03;;;3.90;;
12459;SDS011;6295;49.452;8.466;2024-03-02T11:16:40;5.30;;;4.00;;
12459;SDS011;6295;49.452;8.466;2024-03-02T11:20:42;4.57;;;3.30;;
12459;SDS011;6295;49.452;8.466;2024-03-02T11:24:51;3.93;;;3.53;;
12459;SDS011;6295;49.452;8.466;2024-03-02T11:28:53;4.63;;;4.10;;
12459;SDS011;6295;49.452;8.466;2024-03-02T11:32:58;4.90;;;3.77;;
12459;SDS011;6295;49.452;8.466;2024-03-02T11:37:03;3.67;;;3.07;;
12459;SDS011;6295;49.452;8.466;2024-03-02T11:41:09;3.00;;;2.70;;
12459;SDS011;6295;49.452;8.466;2024-03-02T11:45:12;2.50;;;2.30;;
12459;SDS011;6295;49.452;8.466;2024-03-02T11:49:20;2.53;;;2.33;;
12459;SDS011;6295;49.452;8.466;2024-03-02T11:53:38;2.47;;;2.27;;
12459;SDS011;6295;49.452;8.466;2024-03-02T11:57:44;3.03;;;2.33;;
12459;SDS011;6295;49.452;8.466;2024-03-02T12:01:48;2.43;;;2.00;;
12459;SDS011;6295;49.452;8.466;2024-03-02T12:05:52;2.50;;;2.10;;
12459;SDS011;6295;49.452;8.466;2024-03-02T12:10:02;2.80;;;2.40;;
12459;SDS011;6295;49.452;8.466;2024-03-02T12:14:12;2.40;;;2.20;;
12459;SDS011;6295;49.452;8.466;2024-03-02T12:18:16;2.93;;;2.60;;
12459;SDS011;6295;49.452;8.466;2024-03-02T12:22:24;3.30;;;2.50;;
12459;SDS011;6295;49.452;8.466;2024-03-02T12:26:26;2.30;;;2.00;;
12459;SDS011;6295;49.452;8.466;2024-03-02T12:30:34;2.20;;;1.70;;
12459;SDS011;6295;49.452;8.466;2024-03-02T12:34:39;2.20;;;1.77;;
12459;SDS011;6295;49.452;8.466;2024-03-02T12:38:43;4.17;;;2.20;;
12459;SDS011;6295;49.452;8.466;2024-03-02T12:42:46;2.50;;;2.10;;
12459;SDS011;6295;49.452;8.466;2024-03-02T12:46:50;2.40;;;1.80;;
12459;SDS011;6295;49.452;8.466;2024-03-02T12:50:53;2.57;;;1.93;;
12459;SDS011;6295;49.452;8.466;2024-03-02T12:54:55;2.20;;;2.00;;
12459;SDS011;6295;49.452;8.466;2024-03-02T12:58:58;1.97;;;1.77;;
12459;SDS011;6295;49.452;8.466;2024-03-02T13:03:02;1.67;;;1.53;;
12459;SDS011;6295;49.452;8.466;2024-03-02T13:07:07;1.83;;;1.60;;
12459;SDS011;6295;49.452;8.466;2024-03-02T13:11:14;2.90;;;1.60;;
12459;SDS011;6295;49.452;8.466;2024-03-02T13:15:17;1.80;;;1.60;;
12459;SDS011;6295;49.452;8.466;2024-03-02T13:19:22;2.10;;;1.60;;
12459;SDS011;6295;49.452;8.466;2024-03-02T13:23:25;2.03;;;1.83;;
12459;SDS011;6295;49.452;8.466;2024-03-02T13:27:29;2.13;;;1.80;;
12459;SDS011;6295;49.452;8.466;2024-03-02T13:31:32;2.37;;;1.80;;
12459;SDS011;6295;49.452;8.466;2024-03-02T13:35:35;2.00;;;1.70;;
12459;SDS011;6295;49.452;8.466;2024-03-02T13:39:37;1.77;;;1.60;;
12459;SDS011;6295;49.452;8.466;2024-03-02T13:43:42;2.47;;;2.20;;
12459;SDS011;6295;49.452;8.466;2024-03-02T13:47:45;2.40;;;2.17;;
12459;SDS011;6295;49.452;8.466;2024-03-02T13:51:49;2.93;;;2.40;;
12459;SDS011;6295;49.452;8.466;2024-03-02T13:55:51;3.90;;;2.40;;
12459;SDS011;6295;49.452;8.466;2024-03-02T13:59:53;3.10;;;2.80;;
12459;SDS011;6295;49.452;8.466;2024-03-02T14:03:56;2.80;;;2.60;;
12459;SDS011;6295;49.452;8.466;2024-03-02T14:07:59;2.83;;;2.47;;
12459;SDS011;6295;49.452;8.466;2024-03-02T14:12:02;3.43;;;2.80;;
12459;SDS011;6295;49.452;8.466;2024-03-02T14:16:05;3.20;;;2.47;;
12459;SDS011;6295;49.452;8.466;2024-03-02T14:20:09;4.30;;;2.50;;
12459;SDS011;6295;49.452;8.466;2024-03-02T14:24:15;3.40;;;2.10;;
12459;SDS011;6295;49.452;8.466;2024-03-02T14:28:17;2.10;;;1.90;;
12459;SDS011;6295;49.452;8.466;2024-03-02T14:32:19;2.43;;;2.23;;
12459;SDS011;6295;49.452;8.466;2024-03-02T14:36:23;2.90;;;2.13;;
12459;SDS011;6295;49.452;8.466;2024-03-02T14:40:28;2.30;;;2.10;;
12459;SDS011;6295;49.452;8.466;2024-03-02T14:44:30;2.80;;;2.43;;
12459;SDS011;6295;49.452;8.466;2024-03-02T14:48:33;3.40;;;2.37;;
12459;SDS011;6295;49.452;8.466;2024-03-02T14:52:36;2.77;;;2.20;;
12459;SDS011;6295;49.452;8.466;2024-03-02T14:56:40;2.57;;;2.37;;
12459;SDS011;6295;49.452;8.466;2024-03-02T15:00:42;2.67;;;2.40;;
12459;SDS011;6295;49.452;8.466;2024-03-02T15:04:44;3.10;;;2.63;;
12459;SDS011;6295;49.452;8.466;2024-03-02T15:08:48;3.03;;;2.60;;
12459;SDS011;6295;49.452;8.466;2024-03-02T15:12:52;2.67;;;2.40;;
12459;SDS011;6295;49.452;8.466;2024-03-02T15:16:54;2.87;;;2.40;;
12459;SDS011;6295;49.452;8.466;2024-03-02T15:20:56;2.93;;;2.10;;
12459;SDS011;6295;49.452;8.466;2024-03-02T15:24:58;2.63;;;2.20;;
12459;SDS011;6295;49.452;8.466;2024-03-02T15:29:02;2.63;;;2.23;;
12459;SDS011;6295;49.452;8.466;2024-03-02T15:33:04;5.20;;;2.00;;
12459;SDS011;6295;49.452;8.466;2024-03-02T15:37:06;2.90;;;2.00;;
12459;SDS011;6295;49.452;8.466;2024-03-02T15:41:08;3.27;;;2.27;;
12459;SDS011;6295;49.452;8.466;2024-03-02T15:45:12;2.23;;;2.03;;
12459;SDS011;6295;49.452;8.466;2024-03-02T15:49:14;3.80;;;2.07;;
12459;SDS011;6295;49.452;8.466;2024-03-02T15:53:17;2.47;;;2.17;;
12459;SDS011;6295;49.452;8.466;2024-03-02T15:57:19;2.60;;;2.00;;
12459;SDS011;6295;49.452;8.466;2024-03-02T16:01:24;2.90;;;1.93;;
12459;SDS011;6295;49.452;8.466;2024-03-02T16:05:28;2.60;;;1.53;;
12459;SDS011;6295;49.452;8.466;2024-03-02T16:09:30;3.60;;;1.70;;
12459;SDS011;6295;49.452;8.466;2024-03-02T16:13:32;4.57;;;1.90;;
12459;SDS011;6295;49.452;8.466;2024-03-02T16:17:38;3.87;;;2.27;;
12459;SDS011;6295;49.452;8.466;2024-03-02T16:21:40;2.78;;;1.98;;
12459;SDS011;6295;49.452;8.466;2024-03-02T16:25:43;2.13;;;1.87;;
12459;SDS011;6295;49.452;8.466;2024-03-02T16:29:46;4.10;;;2.10;;
12459;SDS011;6295;49.452;8.466;2024-03-02T16:33:51;3.00;;;1.90;;
12459;SDS011;6295;49.452;8.466;2024-03-02T16:37:54;4.03;;;2.10;;
12459;SDS011;6295;49.452;8.466;2024-03-02T16:41:58;5.97;;;2.30;;
12459;SDS011;6295;49.452;8.466;2024-03-02T16:46:02;19.40;;;2.47;;
12459;SDS011;6295;49.452;8.466;2024-03-02T16:50:07;4.03;;;2.53;;
12459;SDS011;6295;49.452;8.466;2024-03-02T16:54:12;4.90;;;2.93;;
